Time;durP1;ratioP1;P1;durP2;ratioP2;P2;SDS_P1;SDS_P2;PMS_P1;PMS_P2;Temp;Humidity;BMP_temperature;BMP_pressure;BME280_temperature;BME280_humidity;BME280_pressure;Samples;Min_cycle;Max_cycle;Signal;HPM_P1;HPM_P2
2021/12/07 00:00:19;;;;;;;33.83;17.90;;;4.80;99.90;;;;;;5066939;28;20040;-73
2021/12/07 00:02:45;;;;;;;30.92;19.90;;;4.80;99.90;;;;;;5058248;28;20032;-73
2021/12/07 00:05:11;;;;;;;31.45;18.05;;;4.70;99.90;;;;;;5068596;28;20024;-73
2021/12/07 00:07:39;;;;;;;32.47;18.38;;;4.70;99.90;;;;;;5056429;28;20525;-73
2021/12/07 00:10:05;;;;;;;34.67;20.88;;;4.70;99.90;;;;;;5067210;28;20028;-73
2021/12/07 00:12:36;;;;;;;36.92;21.73;;;4.70;99.90;;;;;;5059720;28;20389;-73
2021/12/07 00:15:04;;;;;;;39.60;22.17;;;4.70;99.90;;;;;;5060709;28;20440;-73
2021/12/07 00:17:31;;;;;;;33.83;20.55;;;4.70;99.90;;;;;;5054849;28;20017;-73
2021/12/07 00:19:58;;;;;;;35.53;20.23;;;4.70;99.90;;;;;;5061387;28;20060;-73
2021/12/07 00:22:24;;;;;;;41.08;21.75;;;4.70;99.90;;;;;;5052569;28;20021;-73
2021/12/07 00:24:50;;;;;;;37.90;21.13;;;4.70;99.90;;;;;;5052374;28;20072;-74
2021/12/07 00:27:16;;;;;;;40.80;22.25;;;4.70;99.90;;;;;;5053622;28;20070;-73
2021/12/07 00:29:41;;;;;;;39.67;20.27;;;4.80;99.90;;;;;;5068887;28;20028;-73
2021/12/07 00:37:28;;;;;;;40.53;21.48;;;4.90;99.90;;;;;;5056688;28;20029;-72
2021/12/07 00:39:55;;;;;;;35.40;19.83;;;4.90;99.90;;;;;;5056663;28;20563;-73
2021/12/07 00:42:22;;;;;;;37.13;18.73;;;4.90;99.90;;;;;;5058173;28;20033;-74
2021/12/07 00:44:48;;;;;;;38.67;17.73;;;5.00;99.90;;;;;;5064225;28;20016;-73
2021/12/07 00:47:14;;;;;;;36.55;16.13;;;5.10;99.90;;;;;;5057753;28;20025;-73
2021/12/07 00:49:41;;;;;;;29.90;14.23;;;5.10;99.90;;;;;;5053959;28;20036;-73
2021/12/07 00:52:07;;;;;;;37.58;16.25;;;5.10;99.90;;;;;;5045666;28;20025;-73
2021/12/07 00:54:33;;;;;;;28.25;15.13;;;5.10;99.90;;;;;;5053012;28;20052;-73
2021/12/07 00:56:59;;;;;;;35.22;17.10;;;5.00;99.90;;;;;;5052143;28;20162;-74
2021/12/07 00:59:25;;;;;;;38.03;16.10;;;5.20;99.90;;;;;;5052842;28;20075;-71
2021/12/07 01:01:52;;;;;;;38.30;16.02;;;5.20;99.90;;;;;;5048579;28;20424;-74
2021/12/07 01:04:18;;;;;;;44.15;15.95;;;5.20;99.90;;;;;;5050574;28;20036;-73
2021/12/07 01:07:12;;;;;;;39.13;17.25;;;5.30;99.90;;;;;;5051138;28;20018;-73
2021/12/07 01:24:39;;;;;;;46.70;17.98;;;5.30;99.90;;;;;;5051189;28;20033;-73
2021/12/07 01:26:06;;;;;;;39.95;17.80;;;5.40;99.90;;;;;;5044274;28;20125;-73
2021/12/07 01:28:37;;;;;;;41.85;18.52;;;5.40;99.90;;;;;;5063373;28;20079;-73
2021/12/07 01:46:53;;;;;;;40.05;14.90;;;5.40;99.90;;;;;;5062446;28;20534;-72
2021/12/07 01:52:39;;;;;;;38.38;15.77;;;5.50;99.90;;;;;;5042600;28;20550;-72
2021/12/07 02:00:15;;;;;;;31.33;12.15;;;5.50;99.90;;;;;;5065335;28;20046;-73
2021/12/07 02:02:42;;;;;;;39.03;12.30;;;5.50;99.90;;;;;;5055940;28;20071;-73
2021/12/07 02:05:10;;;;;;;39.55;11.23;;;5.50;99.90;;;;;;5066780;28;20027;-73
2021/12/07 02:07:36;;;;;;;30.67;9.80;;;5.50;99.90;;;;;;5055506;28;20780;-71
2021/12/07 02:10:11;;;;;;;31.50;9.45;;;5.50;99.90;;;;;;5066826;28;20041;-71
2021/12/07 02:12:46;;;;;;;37.38;9.20;;;5.50;99.90;;;;;;5058665;28;20107;-72
2021/12/07 02:15:18;;;;;;;34.20;8.68;;;5.40;99.90;;;;;;5069135;28;20036;-71
2021/12/07 02:17:44;;;;;;;35.42;9.02;;;5.40;99.90;;;;;;5058078;28;20021;-71
2021/12/07 02:20:12;;;;;;;34.88;9.88;;;5.40;99.90;;;;;;5048563;28;20028;-72
2021/12/07 02:22:38;;;;;;;36.30;10.00;;;5.40;99.90;;;;;;5056258;28;20068;-71
2021/12/07 02:25:05;;;;;;;31.27;10.25;;;5.40;99.90;;;;;;5062533;28;20092;-72
2021/12/07 02:27:31;;;;;;;36.05;10.20;;;5.40;99.90;;;;;;5072526;28;20381;-71
2021/12/07 02:29:57;;;;;;;29.40;9.90;;;5.40;99.90;;;;;;5058491;28;20039;-72
2021/12/07 02:32:22;;;;;;;38.22;10.90;;;5.30;99.90;;;;;;5063420;28;20040;-71
2021/12/07 02:34:58;;;;;;;50.35;11.07;;;5.40;99.90;;;;;;5063671;28;20044;-71
2021/12/07 02:37:25;;;;;;;36.72;10.60;;;5.40;99.90;;;;;;5072347;28;20361;-71
2021/12/07 02:39:51;;;;;;;33.65;10.32;;;5.40;99.90;;;;;;5043201;28;20019;-71
2021/12/07 02:42:18;;;;;;;38.63;11.23;;;5.40;99.90;;;;;;5068050;28;20079;-71
2021/12/07 02:44:44;;;;;;;38.78;10.20;;;5.40;99.90;;;;;;5066317;28;20021;-71
2021/12/07 02:47:10;;;;;;;38.63;9.60;;;5.30;99.90;;;;;;5060593;28;20039;-71
2021/12/07 02:49:36;;;;;;;30.40;10.40;;;5.30;99.90;;;;;;5072111;28;20546;-71
2021/12/07 02:52:03;;;;;;;42.78;10.88;;;5.40;99.90;;;;;;5056306;28;20046;-71
2021/12/07 02:54:31;;;;;;;40.65;10.65;;;5.40;99.90;;;;;;5064089;28;20029;-72
2021/12/07 02:56:57;;;;;;;32.15;10.85;;;5.40;99.90;;;;;;5062613;28;20025;-72
2021/12/07 02:59:24;;;;;;;36.65;10.85;;;5.40;99.90;;;;;;5070100;28;20062;-71
2021/12/07 03:01:59;;;;;;;35.58;10.43;;;5.30;99.90;;;;;;5053974;28;20044;-71
2021/12/07 03:04:32;;;;;;;37.55;9.88;;;5.40;99.90;;;;;;5053316;28;20051;-71
2021/12/07 03:26:09;;;;;;;35.35;8.98;;;5.30;99.90;;;;;;5053392;28;20055;-71
2021/12/07 03:28:48;;;;;;;41.88;9.45;;;5.30;99.90;;;;;;5054088;28;20028;-71
2021/12/07 03:31:15;;;;;;;38.97;8.75;;;5.30;99.90;;;;;;5051334;28;20075;-72
2021/12/07 03:33:41;;;;;;;40.17;8.95;;;5.20;99.90;;;;;;5054142;28;20029;-71
2021/12/07 03:36:09;;;;;;;44.75;9.10;;;5.20;99.90;;;;;;5053915;28;20017;-71
2021/12/07 03:38:35;;;;;;;40.90;8.48;;;5.10;99.90;;;;;;5054070;28;20025;-72
2021/12/07 03:41:01;;;;;;;41.50;9.38;;;5.20;99.90;;;;;;5053854;28;20158;-72
2021/12/07 03:43:27;;;;;;;43.65;9.65;;;5.10;99.90;;;;;;5053269;28;20090;-73
2021/12/07 03:45:53;;;;;;;43.92;9.82;;;5.20;99.90;;;;;;5053866;28;20017;-72
2021/12/07 03:48:20;;;;;;;43.33;8.40;;;5.10;99.90;;;;;;5054075;28;20151;-73
2021/12/07 03:50:45;;;;;;;57.00;16.33;;;5.10;99.90;;;;;;5053811;28;20028;-73
2021/12/07 03:53:12;;;;;;;38.47;8.77;;;5.10;99.90;;;;;;5053378;28;20375;-72
2021/12/07 03:55:39;;;;;;;35.88;7.80;;;5.10;99.90;;;;;;5053607;28;20025;-72
2021/12/07 03:58:05;;;;;;;39.35;7.60;;;5.10;99.90;;;;;;5053296;28;20021;-73
2021/12/07 04:00:34;;;;;;;23.98;7.35;;;5.10;99.90;;;;;;5052607;28;20029;-73
2021/12/07 04:03:03;;;;;;;40.13;8.50;;;5.20;99.90;;;;;;5053242;28;20383;-72
2021/12/07 04:05:29;;;;;;;33.60;7.90;;;5.20;99.90;;;;;;5051432;28;20378;-73
2021/12/07 04:07:55;;;;;;;30.02;8.88;;;5.30;99.90;;;;;;5053494;28;20082;-73
2021/12/07 04:10:23;;;;;;;28.42;7.07;;;5.20;99.90;;;;;;5052854;28;20032;-73
2021/12/07 04:12:49;;;;;;;29.02;7.70;;;5.30;99.90;;;;;;5052895;28;20096;-73
2021/12/07 04:15:16;;;;;;;35.85;8.45;;;5.20;99.90;;;;;;5052663;28;20036;-72
2021/12/07 04:17:43;;;;;;;33.33;6.97;;;5.20;99.90;;;;;;5052693;28;20020;-73
2021/12/07 04:20:11;;;;;;;26.58;7.25;;;5.20;99.90;;;;;;5052366;28;20497;-72
2021/12/07 04:22:46;;;;;;;32.90;6.90;;;5.20;99.90;;;;;;5051246;28;20013;-71
2021/12/07 04:25:15;;;;;;;39.65;9.02;;;5.10;99.90;;;;;;5052257;28;20017;-72
2021/12/07 04:27:41;;;;;;;36.05;6.97;;;5.20;99.90;;;;;;5053230;28;20020;-72
2021/12/07 04:30:17;;;;;;;25.38;7.43;;;5.30;99.90;;;;;;5037872;28;20029;-72
2021/12/07 04:32:44;;;;;;;30.63;6.65;;;5.20;99.90;;;;;;5038419;28;20036;-73
2021/12/07 04:35:11;;;;;;;38.05;7.53;;;5.20;99.90;;;;;;5053133;28;20037;-73
2021/12/07 04:37:37;;;;;;;23.95;6.82;;;5.10;99.90;;;;;;5065304;28;20095;-73
2021/12/07 04:40:04;;;;;;;41.60;7.40;;;5.30;99.90;;;;;;5057863;28;20478;-72
2021/12/07 04:42:30;;;;;;;33.13;7.05;;;5.10;99.90;;;;;;5069363;28;20013;-72
2021/12/07 04:45:00;;;;;;;33.78;10.20;;;5.10;99.90;;;;;;5047440;28;20458;-72
2021/12/07 04:47:44;;;;;;;30.83;7.72;;;5.20;99.90;;;;;;5055058;28;20028;-73
2021/12/07 04:58:07;;;;;;;27.88;6.40;;;5.10;99.90;;;;;;5056677;28;20037;-72
2021/12/07 05:00:33;;;;;;;29.35;7.20;;;5.10;99.90;;;;;;5049291;28;20495;-73
2021/12/07 05:03:03;;;;;;;29.15;6.72;;;5.10;99.90;;;;;;5071298;28;20044;-73
2021/12/07 05:05:34;;;;;;;40.80;6.93;;;5.10;99.90;;;;;;5061889;28;20329;-73
2021/12/07 05:08:02;;;;;;;35.22;7.80;;;5.10;99.90;;;;;;5057395;28;20519;-73
2021/12/07 05:11:44;;;;;;;21.25;6.10;;;5.20;99.90;;;;;;5069817;28;20029;-72
2021/12/07 05:13:29;;;;;;;29.38;7.20;;;5.20;99.90;;;;;;5061831;28;20033;-73
2021/12/07 05:18:41;;;;;;;31.85;6.63;;;5.20;99.90;;;;;;5040357;28;20034;-73
2021/12/07 05:23:57;;;;;;;32.95;7.82;;;5.20;99.90;;;;;;5060103;28;20088;-73
2021/12/07 05:39:52;;;;;;;30.88;6.47;;;5.00;99.90;;;;;;5051801;28;20044;-73
2021/12/07 05:42:19;;;;;;;36.78;7.05;;;5.10;99.90;;;;;;5068512;28;20078;-73
2021/12/07 05:44:45;;;;;;;23.45;5.70;;;5.00;99.90;;;;;;5057782;28;20081;-73
2021/12/07 05:47:11;;;;;;;30.50;6.25;;;4.90;99.90;;;;;;5063469;28;20502;-73
2021/12/07 05:49:36;;;;;;;26.40;6.20;;;4.90;99.90;;;;;;5059759;28;20461;-73
2021/12/07 05:52:03;;;;;;;25.58;6.32;;;4.80;99.90;;;;;;5067787;28;20052;-73
2021/12/07 05:54:29;;;;;;;25.48;6.22;;;4.80;99.90;;;;;;5055028;28;20489;-73
2021/12/07 05:56:54;;;;;;;27.58;6.95;;;4.70;99.90;;;;;;5066132;28;20028;-73
2021/12/07 05:59:20;;;;;;;30.58;6.75;;;4.80;99.90;;;;;;5054019;28;20067;-72
2021/12/07 06:01:46;;;;;;;26.58;6.03;;;4.80;99.90;;;;;;5064169;28;20040;-73
2021/12/07 06:04:12;;;;;;;31.52;6.40;;;4.80;99.90;;;;;;5069362;28;20029;-73
2021/12/07 06:06:39;;;;;;;34.83;7.22;;;4.80;99.90;;;;;;5056129;28;20380;-73
2021/12/07 06:09:06;;;;;;;22.08;6.43;;;4.90;99.90;;;;;;5064159;28;20021;-72
2021/12/07 06:11:32;;;;;;;31.55;8.25;;;4.80;99.90;;;;;;5063305;28;20510;-73
2021/12/07 06:13:58;;;;;;;31.55;6.18;;;4.90;99.90;;;;;;5056326;28;20034;-73
2021/12/07 06:16:29;;;;;;;35.35;7.05;;;4.80;99.90;;;;;;5067985;28;20476;-72
2021/12/07 06:18:55;;;;;;;22.95;6.53;;;4.80;99.90;;;;;;5058900;28;20453;-72
2021/12/07 06:21:20;;;;;;;29.33;7.30;;;4.80;99.90;;;;;;5061892;28;20078;-73
2021/12/07 06:23:46;;;;;;;27.42;7.63;;;4.80;99.90;;;;;;5063058;28;20024;-72
2021/12/07 06:26:12;;;;;;;25.92;6.90;;;4.80;99.90;;;;;;5068691;28;20503;-72
2021/12/07 06:28:37;;;;;;;28.90;6.22;;;4.90;99.90;;;;;;5054837;28;20070;-73
2021/12/07 06:31:04;;;;;;;31.08;7.10;;;4.80;99.90;;;;;;5055146;28;20366;-73
2021/12/07 06:33:30;;;;;;;28.80;7.55;;;4.80;99.90;;;;;;5059320;28;20036;-72
2021/12/07 06:35:58;;;;;;;33.10;9.68;;;4.80;99.90;;;;;;5066111;28;20036;-72
2021/12/07 06:38:28;;;;;;;29.98;6.80;;;4.90;99.90;;;;;;5054737;28;20397;-73
2021/12/07 06:40:55;;;;;;;28.38;7.78;;;4.80;99.90;;;;;;5065660;28;20021;-72
2021/12/07 06:43:21;;;;;;;28.02;8.10;;;4.80;99.90;;;;;;5061653;28;20461;-73
2021/12/07 06:45:47;;;;;;;33.42;9.00;;;4.80;99.90;;;;;;5056917;28;20110;-73
2021/12/07 06:48:13;;;;;;;34.78;10.32;;;4.80;99.90;;;;;;5068345;28;20472;-72
2021/12/07 06:50:39;;;;;;;31.67;10.00;;;4.80;99.90;;;;;;5056095;28;20029;-73
2021/12/07 06:53:06;;;;;;;28.90;9.48;;;4.80;99.90;;;;;;5063503;28;20025;-73
2021/12/07 06:55:32;;;;;;;32.25;9.38;;;4.90;99.90;;;;;;5062667;28;20048;-73
2021/12/07 06:57:58;;;;;;;40.65;10.73;;;4.90;99.90;;;;;;5056258;28;20435;-73
2021/12/07 07:00:24;;;;;;;35.17;10.75;;;4.90;99.90;;;;;;5055702;28;20047;-72
2021/12/07 07:02:50;;;;;;;27.75;9.63;;;4.90;99.90;;;;;;5058020;28;20025;-72
2021/12/07 07:05:17;;;;;;;25.25;9.98;;;5.00;99.90;;;;;;5064504;28;20043;-73
2021/12/07 07:07:43;;;;;;;43.00;11.45;;;5.00;99.90;;;;;;5062087;28;20025;-72
2021/12/07 07:10:13;;;;;;;35.55;11.00;;;5.00;99.90;;;;;;5071705;28;20028;-73
2021/12/07 07:12:40;;;;;;;31.90;12.43;;;5.00;99.90;;;;;;5057689;28;20042;-73
2021/12/07 07:15:07;;;;;;;32.53;11.00;;;4.90;99.90;;;;;;5066318;28;20504;-72
2021/12/07 07:17:32;;;;;;;27.50;10.98;;;4.90;99.90;;;;;;5066055;28;20025;-73
2021/12/07 07:19:58;;;;;;;37.20;11.00;;;4.90;99.90;;;;;;5059632;28;20032;-72
2021/12/07 07:22:24;;;;;;;39.28;10.40;;;4.80;99.90;;;;;;5071077;28;20028;-73
2021/12/07 07:24:50;;;;;;;27.83;9.82;;;4.70;99.90;;;;;;5059309;28;20049;-71
2021/12/07 07:27:16;;;;;;;29.88;10.88;;;4.70;99.90;;;;;;5062946;28;20125;-72
2021/12/07 07:29:42;;;;;;;27.95;10.07;;;4.80;99.90;;;;;;5058217;28;20018;-72
2021/12/07 07:32:07;;;;;;;23.73;9.98;;;4.80;99.90;;;;;;5055548;28;20051;-72
2021/12/07 07:34:33;;;;;;;30.90;10.73;;;4.80;99.90;;;;;;5041445;28;20033;-71
2021/12/07 07:36:59;;;;;;;39.75;9.95;;;4.70;99.90;;;;;;5067505;28;20021;-72
2021/12/07 07:39:25;;;;;;;30.33;8.88;;;4.70;99.90;;;;;;5064290;28;20025;-72
2021/12/07 07:41:50;;;;;;;28.60;8.80;;;4.70;99.90;;;;;;5053943;28;20102;-73
2021/12/07 07:44:16;;;;;;;22.27;8.13;;;4.70;99.90;;;;;;5053193;28;20111;-73
2021/12/07 07:46:42;;;;;;;35.38;8.77;;;4.70;99.90;;;;;;5058099;28;20050;-72
2021/12/07 07:49:08;;;;;;;24.00;8.32;;;4.70;99.90;;;;;;5056668;28;20486;-72
2021/12/07 07:51:34;;;;;;;23.63;8.05;;;4.70;99.90;;;;;;5052904;28;20601;-72
2021/12/07 07:54:00;;;;;;;31.08;9.73;;;4.60;99.90;;;;;;5046677;28;20021;-72
2021/12/07 07:56:28;;;;;;;26.02;8.30;;;4.60;99.90;;;;;;5045040;28;20520;-71
2021/12/07 07:58:54;;;;;;;28.52;7.82;;;4.60;99.90;;;;;;5043858;28;20555;-71
2021/12/07 08:01:20;;;;;;;28.35;9.10;;;4.60;99.90;;;;;;5046658;28;20116;-71
2021/12/07 08:03:46;;;;;;;21.88;7.43;;;4.60;99.90;;;;;;5052833;28;20037;-71
2021/12/07 08:06:12;;;;;;;26.30;8.30;;;4.60;99.90;;;;;;5053945;28;20082;-71
2021/12/07 08:08:37;;;;;;;28.88;7.95;;;4.60;99.90;;;;;;5044301;28;20025;-70
2021/12/07 08:11:03;;;;;;;25.88;7.40;;;4.50;99.90;;;;;;5048956;28;20033;-71
2021/12/07 08:13:31;;;;;;;30.80;8.57;;;4.50;99.90;;;;;;5049357;28;20064;-71
2021/12/07 08:15:57;;;;;;;30.75;7.45;;;4.50;99.90;;;;;;5049412;28;20057;-70
2021/12/07 08:18:22;;;;;;;25.52;8.07;;;4.50;99.90;;;;;;5045128;28;20468;-70
2021/12/07 08:20:48;;;;;;;27.42;8.43;;;4.60;99.90;;;;;;5045230;28;20031;-72
2021/12/07 08:23:14;;;;;;;25.00;7.82;;;4.60;99.90;;;;;;5044794;28;20025;-72
2021/12/07 08:25:43;;;;;;;21.85;6.70;;;4.60;99.90;;;;;;5052783;28;20021;-71
2021/12/07 08:28:11;;;;;;;21.33;7.25;;;4.50;99.90;;;;;;5051311;28;20381;-71
2021/12/07 08:30:38;;;;;;;25.98;7.32;;;4.50;99.90;;;;;;5046708;28;20037;-71
2021/12/07 08:33:04;;;;;;;24.58;8.20;;;4.60;99.90;;;;;;5045873;28;20860;-71
2021/12/07 08:35:30;;;;;;;25.63;7.22;;;4.60;99.90;;;;;;5049426;28;20040;-71
2021/12/07 08:37:56;;;;;;;21.08;7.85;;;4.60;99.90;;;;;;5050576;28;20399;-72
2021/12/07 08:40:24;;;;;;;32.72;6.93;;;4.60;99.90;;;;;;5054794;28;20029;-71
2021/12/07 08:42:51;;;;;;;19.42;7.30;;;4.50;99.90;;;;;;5053006;28;20021;-73
2021/12/07 08:45:18;;;;;;;21.38;7.18;;;4.60;99.90;;;;;;5047313;28;20436;-72
2021/12/07 08:47:45;;;;;;;26.00;7.50;;;4.60;99.90;;;;;;5051450;28;20025;-72
2021/12/07 08:50:18;;;;;;;29.52;7.70;;;4.60;99.90;;;;;;5054835;28;20028;-72
2021/12/07 08:52:47;;;;;;;34.60;7.47;;;4.70;99.90;;;;;;5055386;28;20059;-71
2021/12/07 09:00:31;;;;;;;31.60;8.73;;;4.70;99.90;;;;;;5050354;28;20146;-71
2021/12/07 09:02:57;;;;;;;24.67;8.10;;;4.80;99.90;;;;;;5051184;28;20025;-72
2021/12/07 09:05:24;;;;;;;27.38;6.88;;;4.70;99.90;;;;;;5047475;28;20047;-73
2021/12/07 09:07:50;;;;;;;20.25;6.03;;;4.80;99.90;;;;;;5043497;28;20027;-72
2021/12/07 09:10:16;;;;;;;17.67;6.20;;;4.80;99.90;;;;;;5040521;28;20100;-72
2021/12/07 09:12:42;;;;;;;21.10;6.40;;;4.90;99.90;;;;;;5043618;28;20119;-72
2021/12/07 09:15:09;;;;;;;21.38;6.40;;;4.80;99.90;;;;;;5051492;28;20124;-72
2021/12/07 09:17:35;;;;;;;22.35;7.13;;;4.90;99.90;;;;;;5053102;28;20018;-71
2021/12/07 09:20:05;;;;;;;24.88;7.50;;;5.00;99.90;;;;;;5051758;28;20535;-72
2021/12/07 09:22:32;;;;;;;38.33;7.28;;;4.90;99.90;;;;;;5046461;28;20075;-73
2021/12/07 09:24:58;;;;;;;20.55;6.40;;;4.90;99.90;;;;;;5041025;28;20091;-72
2021/12/07 09:27:24;;;;;;;28.80;7.70;;;5.00;99.90;;;;;;5046337;28;20428;-72
2021/12/07 09:29:50;;;;;;;24.88;6.10;;;5.00;99.90;;;;;;5044516;28;20112;-73
2021/12/07 09:32:16;;;;;;;25.13;6.65;;;4.90;99.90;;;;;;5047420;28;20068;-73
2021/12/07 09:34:42;;;;;;;21.77;5.57;;;5.00;99.90;;;;;;5041248;28;20928;-72
2021/12/07 09:37:07;;;;;;;22.75;5.97;;;5.10;99.90;;;;;;5047675;28;20100;-72
2021/12/07 09:39:33;;;;;;;24.45;6.65;;;5.20;99.90;;;;;;5046822;28;20068;-72
2021/12/07 09:41:59;;;;;;;26.45;6.32;;;5.20;99.90;;;;;;5048397;28;20109;-73
2021/12/07 09:44:25;;;;;;;23.13;6.30;;;5.20;99.90;;;;;;5050465;28;20032;-72
2021/12/07 09:46:51;;;;;;;17.65;5.97;;;5.20;99.90;;;;;;5038415;28;20030;-72
2021/12/07 09:49:17;;;;;;;26.30;6.85;;;5.20;99.90;;;;;;5043702;28;20021;-72
2021/12/07 09:51:43;;;;;;;17.15;6.22;;;5.30;99.90;;;;;;5049884;28;20059;-72
2021/12/07 09:54:09;;;;;;;25.13;6.90;;;5.30;99.90;;;;;;5044508;28;20053;-73
2021/12/07 09:56:36;;;;;;;21.10;6.35;;;5.40;99.90;;;;;;5049920;28;20030;-72
2021/12/07 09:59:04;;;;;;;22.30;6.78;;;5.40;99.90;;;;;;5042485;28;20386;-73
2021/12/07 10:01:30;;;;;;;35.00;9.35;;;5.40;99.90;;;;;;5047674;28;20037;-73
2021/12/07 10:03:56;;;;;;;18.35;6.30;;;5.40;99.90;;;;;;5052322;28;20044;-73
2021/12/07 10:06:23;;;;;;;19.88;5.90;;;5.50;99.90;;;;;;5054863;28;20070;-72
2021/12/07 10:08:49;;;;;;;23.58;8.55;;;5.50;99.90;;;;;;5054373;28;20031;-73
2021/12/07 10:11:15;;;;;;;20.55;6.63;;;5.50;99.90;;;;;;5050662;28;20017;-72
2021/12/07 10:13:44;;;;;;;22.92;5.47;;;5.50;99.90;;;;;;5046710;28;20061;-73
2021/12/07 10:16:12;;;;;;;21.85;6.45;;;5.50;99.90;;;;;;5053200;28;20021;-73
2021/12/07 10:18:40;;;;;;;22.63;5.35;;;5.60;99.90;;;;;;5050976;28;20436;-73
2021/12/07 10:21:15;;;;;;;19.77;6.25;;;5.60;99.90;;;;;;5039576;28;20033;-71
2021/12/07 10:23:50;;;;;;;19.73;5.85;;;5.60;99.90;;;;;;5043715;28;20029;-73
2021/12/07 10:26:19;;;;;;;21.05;7.00;;;5.60;99.90;;;;;;5050294;28;20032;-73
2021/12/07 10:28:47;;;;;;;27.60;6.97;;;5.60;99.90;;;;;;5047634;28;20009;-74
2021/12/07 10:31:30;;;;;;;22.83;10.18;;;5.60;99.90;;;;;;5046619;28;20041;-74
2021/12/07 10:34:04;;;;;;;20.77;6.72;;;5.70;99.90;;;;;;5040918;28;20401;-74
2021/12/07 10:36:34;;;;;;;22.52;6.78;;;5.70;99.90;;;;;;5048865;28;20029;-74
2021/12/07 10:39:06;;;;;;;17.90;6.45;;;5.70;99.90;;;;;;5043086;28;20036;-73
2021/12/07 10:41:36;;;;;;;24.20;6.50;;;5.60;99.90;;;;;;5048055;28;20044;-74
2021/12/07 10:44:14;;;;;;;26.33;6.72;;;5.70;99.90;;;;;;5044868;28;20021;-73
2021/12/07 10:46:46;;;;;;;24.75;7.35;;;5.70;99.90;;;;;;5043052;28;20424;-74
2021/12/07 10:49:12;;;;;;;;;;;5.80;99.90;;;;;;5049332;28;20431;-74
2021/12/07 10:51:39;;;;;;;18.08;5.60;;;5.80;99.90;;;;;;5053362;28;19904;-73
2021/12/07 10:54:06;;;;;;;24.88;5.80;;;5.90;99.90;;;;;;5049809;28;20489;-73
2021/12/07 10:56:33;;;;;;;21.52;5.68;;;5.70;99.90;;;;;;5047973;28;20037;-72
2021/12/07 10:59:02;;;;;;;20.73;5.45;;;5.80;99.90;;;;;;5046899;28;20083;-73
2021/12/07 11:01:41;;;;;;;22.83;6.85;;;5.80;99.90;;;;;;5047981;28;20260;-72
2021/12/07 11:04:17;;;;;;;25.52;5.97;;;5.80;99.90;;;;;;5050770;28;20025;-73
2021/12/07 11:07:22;;;;;;;18.00;4.75;;;5.90;99.90;;;;;;5048796;28;20021;-73
2021/12/07 11:10:04;;;;;;;16.13;4.40;;;5.90;99.90;;;;;;5053818;28;20039;-73
2021/12/07 11:12:37;;;;;;;28.17;5.50;;;6.00;99.90;;;;;;5055701;28;20044;-73
2021/12/07 11:15:11;;;;;;;;;;;6.00;99.90;;;;;;5052447;28;20043;-73
2021/12/07 11:17:36;;;;;;;14.35;3.80;;;5.90;99.90;;;;;;5047903;28;19927;-74
2021/12/07 11:20:05;;;;;;;19.48;5.15;;;6.10;99.90;;;;;;5051080;28;20494;-73
2021/12/07 11:22:34;;;;;;;14.30;5.25;;;6.10;99.90;;;;;;5053945;28;20496;-73
2021/12/07 11:25:03;;;;;;;25.70;5.57;;;6.10;99.90;;;;;;5048971;28;20111;-73
2021/12/07 11:30:21;;;;;;;21.50;4.90;;;6.20;99.90;;;;;;5051277;28;20107;-72
2021/12/07 11:32:54;;;;;;;;;;;6.20;99.90;;;;;;5058738;28;20036;-73
2021/12/07 11:35:35;;;;;;;16.05;4.53;;;6.30;99.90;;;;;;5054188;28;19919;-74
2021/12/07 11:38:05;;;;;;;14.70;3.83;;;6.30;99.90;;;;;;5054609;28;20090;-73
2021/12/07 11:40:38;;;;;;;21.98;4.15;;;6.20;99.90;;;;;;5070349;28;20017;-73
2021/12/07 11:43:18;;;;;;;17.00;3.45;;;6.30;99.90;;;;;;5053720;28;20494;-73
2021/12/07 11:45:44;;;;;;;24.23;6.75;;;6.30;99.90;;;;;;5063322;28;20064;-75
2021/12/07 11:48:11;;;;;;;32.47;17.95;;;6.40;99.90;;;;;;5056754;28;20017;-73
2021/12/07 11:50:42;;;;;;;22.27;4.03;;;6.50;99.90;;;;;;5068848;28;20384;-73
2021/12/07 11:53:09;;;;;;;12.90;3.65;;;6.40;99.90;;;;;;5062549;28;20485;-72
2021/12/07 11:55:36;;;;;;;16.92;3.63;;;6.50;99.90;;;;;;5069905;28;20385;-71
2021/12/07 11:58:05;;;;;;;13.50;3.50;;;6.50;99.90;;;;;;5066270;28;20032;-71
2021/12/07 12:00:39;;;;;;;17.15;3.40;;;6.60;99.90;;;;;;5051000;28;20025;-71
2021/12/07 12:03:11;;;;;;;25.75;4.15;;;6.50;99.90;;;;;;5071421;28;20385;-71
2021/12/07 12:05:39;;;;;;;12.43;2.92;;;6.50;99.90;;;;;;5061281;28;20064;-71
2021/12/07 12:08:09;;;;;;;15.30;3.80;;;6.50;99.90;;;;;;5069403;28;20020;-71
2021/12/07 12:10:42;;;;;;;15.88;3.50;;;6.50;99.90;;;;;;5048258;28;20035;-70
2021/12/07 12:13:31;;;;;;;15.48;2.83;;;6.60;99.90;;;;;;5064063;28;20025;-71
2021/12/07 12:16:03;;;;;;;20.13;4.22;;;6.60;99.90;;;;;;5062893;28;20551;-72
2021/12/07 12:18:32;;;;;;;16.98;3.60;;;6.70;99.90;;;;;;5056557;28;20039;-71
2021/12/07 12:21:16;;;;;;;16.63;3.20;;;6.80;99.90;;;;;;5065688;28;20108;-72
2021/12/07 12:23:50;;;;;;;12.38;3.03;;;6.90;99.90;;;;;;5058879;28;20017;-72
2021/12/07 12:26:22;;;;;;;17.45;3.83;;;6.80;99.90;;;;;;5069557;28;20105;-71
2021/12/07 12:28:49;;;;;;;15.18;3.08;;;6.80;99.90;;;;;;5065374;28;20086;-70
2021/12/07 12:31:19;;;;;;;21.25;3.80;;;6.90;99.90;;;;;;5057887;28;20032;-70
2021/12/07 12:33:49;;;;;;;14.95;3.63;;;7.00;99.90;;;;;;5066345;28;20064;-70
2021/12/07 12:36:15;;;;;;;12.70;2.63;;;6.90;99.90;;;;;;5067607;28;20112;-70
2021/12/07 12:39:19;;;;;;;13.75;2.60;;;6.80;99.90;;;;;;5055821;28;20020;-70
2021/12/07 12:41:44;;;;;;;15.75;2.20;;;6.80;99.90;;;;;;5056842;28;20045;-71
2021/12/07 12:44:15;;;;;;;17.65;3.95;;;6.90;99.90;;;;;;5063458;28;20021;-70
2021/12/07 12:46:41;;;;;;;13.90;3.08;;;6.90;99.90;;;;;;5068927;28;20451;-71
2021/12/07 12:49:11;;;;;;;15.32;3.15;;;6.90;99.90;;;;;;5060832;28;20021;-70
2021/12/07 12:51:46;;;;;;;19.38;3.28;;;6.90;99.90;;;;;;5060524;28;20535;-71
2021/12/07 12:54:12;;;;;;;16.35;4.07;;;7.00;99.90;;;;;;5069111;28;20036;-71
2021/12/07 12:56:39;;;;;;;13.32;3.47;;;7.00;99.90;;;;;;5063241;28;20029;-71
2021/12/07 12:59:09;;;;;;;20.30;4.20;;;7.00;99.90;;;;;;5055623;28;20020;-70
2021/12/07 13:01:44;;;;;;;13.88;3.28;;;7.00;99.90;;;;;;5051936;28;20043;-70
2021/12/07 13:04:10;;;;;;;10.65;3.05;;;7.00;99.90;;;;;;5051999;28;20036;-70
2021/12/07 13:06:49;;;;;;;14.35;2.88;;;7.10;99.90;;;;;;5052617;28;20052;-70
2021/12/07 13:09:17;;;;;;;14.65;2.75;;;7.10;99.90;;;;;;5045734;28;20025;-70
2021/12/07 13:11:44;;;;;;;16.30;2.85;;;7.10;99.90;;;;;;5045896;28;20075;-70
2021/12/07 13:14:23;;;;;;;17.67;3.65;;;7.00;99.90;;;;;;5050014;28;20059;-70
2021/12/07 13:16:53;;;;;;;10.60;2.70;;;7.00;99.90;;;;;;5052581;28;20036;-70
2021/12/07 13:19:20;;;;;;;11.30;2.78;;;7.10;99.90;;;;;;5051458;28;20025;-71
2021/12/07 13:21:48;;;;;;;12.38;2.10;;;7.10;99.90;;;;;;5050089;28;20028;-70
2021/12/07 13:24:30;;;;;;;14.18;2.95;;;7.00;99.90;;;;;;5068573;28;20702;-71
2021/12/07 13:26:55;;;;;;;13.13;2.67;;;7.00;99.90;;;;;;5042931;28;20378;-70
2021/12/07 13:29:24;;;;;;;11.23;2.58;;;7.10;99.90;;;;;;5057540;28;20354;-70
2021/12/07 13:31:56;;;;;;;15.82;2.75;;;7.10;99.90;;;;;;5039472;28;20041;-70
2021/12/07 13:34:40;;;;;;;10.90;2.38;;;7.10;99.90;;;;;;5044440;28;20750;-70
2021/12/07 13:37:09;;;;;;;11.13;2.75;;;7.20;99.90;;;;;;5046291;28;20575;-71
2021/12/07 13:39:48;;;;;;;15.23;2.78;;;7.10;99.90;;;;;;5041774;28;20033;-70
2021/12/07 13:42:28;;;;;;;11.20;2.67;;;7.10;99.90;;;;;;5044783;28;20141;-70
2021/12/07 13:45:03;;;;;;;10.57;2.90;;;7.10;99.90;;;;;;5051960;28;20032;-70
2021/12/07 13:47:36;;;;;;;15.18;3.33;;;7.20;99.90;;;;;;5052545;28;20474;-71
2021/12/07 13:50:09;;;;;;;11.13;2.83;;;7.10;99.90;;;;;;5037281;28;20025;-72
2021/12/07 13:52:40;;;;;;;15.30;4.40;;;7.00;99.90;;;;;;5042640;28;20020;-72
2021/12/07 13:55:09;;;;;;;10.73;2.33;;;7.10;99.90;;;;;;5047605;28;20060;-72
2021/12/07 13:57:38;;;;;;;14.32;3.35;;;7.10;99.90;;;;;;5049603;28;20047;-72
2021/12/07 14:00:27;;;;;;;11.25;2.85;;;7.10;99.90;;;;;;5048422;28;20397;-72
2021/12/07 14:03:00;;;;;;;11.48;3.20;;;7.10;99.90;;;;;;5047990;28;20036;-72
2021/12/07 14:05:29;;;;;;;8.38;3.28;;;7.00;99.90;;;;;;5054207;28;20032;-72
2021/12/07 14:07:57;;;;;;;10.77;4.45;;;7.10;99.90;;;;;;5042136;28;20021;-72
2021/12/07 14:10:29;;;;;;;13.13;3.33;;;7.10;99.90;;;;;;5050711;28;20107;-72
2021/12/07 14:12:57;;;;;;;18.08;4.10;;;7.10;99.90;;;;;;5045384;28;20030;-72
2021/12/07 14:15:26;;;;;;;15.93;2.85;;;7.00;99.90;;;;;;5046950;28;20029;-72
2021/12/07 14:17:58;;;;;;;14.02;5.18;;;7.00;99.90;;;;;;5042835;28;20100;-72
2021/12/07 14:20:30;;;;;;;7.93;3.08;;;7.00;99.90;;;;;;5054206;28;20025;-72
2021/12/07 14:22:57;;;;;;;8.85;2.85;;;7.00;99.90;;;;;;5049847;28;20026;-72
2021/12/07 14:25:22;;;;;;;10.43;3.03;;;7.00;99.90;;;;;;5047316;28;20021;-71
2021/12/07 14:27:48;;;;;;;18.95;3.38;;;7.10;99.90;;;;;;5036883;28;21097;-71
2021/12/07 14:30:15;;;;;;;21.77;4.03;;;7.10;99.90;;;;;;5040606;28;20388;-71